createdAt,value
2018-04-17T00:01:49.797Z,10.18
2018-04-17T00:04:15.662Z,10.06
2018-04-17T00:06:41.580Z,10.07
2018-04-17T00:09:07.453Z,10.14
2018-04-17T00:11:33.316Z,10.14
2018-04-17T00:13:59.178Z,10.13
2018-04-17T00:16:25.061Z,9.91
2018-04-17T00:18:50.929Z,10.02
2018-04-17T00:21:16.836Z,9.95
2018-04-17T00:23:42.702Z,10.08
2018-04-17T00:26:08.594Z,10.24
2018-04-17T00:28:34.508Z,10.29
2018-04-17T00:31:00.392Z,10.03
2018-04-17T00:33:26.294Z,9.75
2018-04-17T00:35:52.161Z,9.60
2018-04-17T00:38:18.073Z,9.74
2018-04-17T00:40:43.952Z,9.75
2018-04-17T00:43:09.843Z,9.82
2018-04-17T00:45:35.724Z,9.93
2018-04-17T00:48:01.592Z,9.85
2018-04-17T00:50:27.507Z,9.78
2018-04-17T00:52:53.388Z,9.66
2018-04-17T00:55:19.269Z,9.48
2018-04-17T00:57:45.125Z,9.62
2018-04-17T01:00:11.066Z,9.49
2018-04-17T01:02:36.922Z,9.65
2018-04-17T01:05:03.908Z,9.73
2018-04-17T01:07:29.766Z,9.67
2018-04-17T01:09:55.629Z,9.75
2018-04-17T01:12:21.498Z,9.77
2018-04-17T01:14:47.357Z,9.73
2018-04-17T01:17:13.232Z,9.81
2018-04-17T01:19:39.089Z,9.89
2018-04-17T01:22:04.997Z,9.86
2018-04-17T01:24:30.862Z,9.82
2018-04-17T01:26:56.743Z,9.76
2018-04-17T01:29:22.606Z,9.68
2018-04-17T01:31:48.481Z,9.49
2018-04-17T01:34:14.345Z,9.50
2018-04-17T01:36:40.487Z,9.62
2018-04-17T01:39:06.359Z,9.44
2018-04-17T01:41:32.232Z,9.34
2018-04-17T01:43:58.109Z,9.39
2018-04-17T01:46:23.992Z,9.46
2018-04-17T01:48:49.861Z,9.62
2018-04-17T01:51:15.698Z,9.63
2018-04-17T01:53:41.582Z,9.31
2018-04-17T01:56:07.428Z,9.24
2018-04-17T01:58:33.292Z,9.18
2018-04-17T02:00:59.157Z,9.10
2018-04-17T02:03:25.054Z,9.08
2018-04-17T02:05:50.953Z,9.11
2018-04-17T02:08:16.818Z,9.03
2018-04-17T02:10:42.806Z,8.93
2018-04-17T02:13:08.680Z,8.85
2018-04-17T02:15:34.557Z,8.75
2018-04-17T02:18:00.444Z,8.87
2018-04-17T02:20:26.341Z,8.73
2018-04-17T02:22:52.197Z,8.76
2018-04-17T02:25:18.101Z,8.91
2018-04-17T02:27:43.972Z,8.94
2018-04-17T02:30:09.833Z,8.76
2018-04-17T02:32:35.712Z,8.77
2018-04-17T02:35:01.570Z,8.61
2018-04-17T02:37:27.482Z,8.83
2018-04-17T02:39:53.399Z,8.89
2018-04-17T02:42:19.245Z,8.83
2018-04-17T02:44:45.102Z,8.78
2018-04-17T02:47:10.987Z,8.65
2018-04-17T02:49:36.827Z,8.38
2018-04-17T02:52:02.700Z,8.48
2018-04-17T02:54:28.557Z,8.55
2018-04-17T02:56:54.422Z,8.62
2018-04-17T02:59:20.283Z,8.59
2018-04-17T03:01:46.221Z,8.55
2018-04-17T03:04:12.101Z,8.43
2018-04-17T03:06:38.295Z,8.47
2018-04-17T03:09:04.217Z,8.68
2018-04-17T03:11:30.085Z,8.54
2018-04-17T03:13:55.987Z,8.66
2018-04-17T03:16:21.849Z,8.66
2018-04-17T03:18:47.717Z,8.77
2018-04-17T03:21:13.594Z,8.85
2018-04-17T03:23:39.476Z,8.91
2018-04-17T03:26:05.372Z,8.68
2018-04-17T03:28:31.229Z,8.41
2018-04-17T03:30:57.090Z,8.21
2018-04-17T03:33:22.979Z,8.34
2018-04-17T03:35:48.874Z,8.39
2018-04-17T03:38:14.765Z,8.32
2018-04-17T03:40:40.651Z,8.35
2018-04-17T03:43:06.570Z,8.42
2018-04-17T03:45:32.478Z,8.42
2018-04-17T03:47:58.373Z,8.48
2018-04-17T03:50:24.278Z,8.29
2018-04-17T03:52:50.217Z,8.25
2018-04-17T03:55:16.107Z,7.97
2018-04-17T03:57:42.009Z,8.12
2018-04-17T04:00:07.897Z,7.98
2018-04-17T04:02:33.778Z,7.94
2018-04-17T04:04:59.655Z,7.97
2018-04-17T04:07:25.582Z,7.90
2018-04-17T04:09:51.445Z,8.09
2018-04-17T04:12:17.327Z,8.13
2018-04-17T04:14:43.349Z,8.38
2018-04-17T04:17:21.681Z,8.52
2018-04-17T04:19:59.796Z,8.55
2018-04-17T04:22:37.852Z,8.46
2018-04-17T04:28:05.358Z,8.72
2018-04-17T04:30:31.239Z,8.60
2018-04-17T04:32:57.122Z,8.29
2018-04-17T04:35:22.985Z,8.55
2018-04-17T04:37:48.859Z,8.78
2018-04-17T04:40:14.748Z,8.79
2018-04-17T04:42:40.593Z,8.90
2018-04-17T04:45:06.491Z,8.88
2018-04-17T04:47:32.345Z,8.57
2018-04-17T04:49:58.273Z,8.87
2018-04-17T04:52:24.177Z,8.93
2018-04-17T04:54:50.041Z,8.91
2018-04-17T04:57:15.920Z,8.71
2018-04-17T04:59:41.777Z,8.48
2018-04-17T05:02:07.657Z,8.60
2018-04-17T05:04:33.515Z,8.63
2018-04-17T05:06:59.413Z,8.51
2018-04-17T05:09:25.237Z,8.26
2018-04-17T05:11:51.088Z,8.14
2018-04-17T05:14:16.955Z,8.13
2018-04-17T05:16:42.967Z,8.13
2018-04-17T05:19:08.813Z,7.92
2018-04-17T05:21:34.689Z,8.01
2018-04-17T05:24:00.562Z,8.02
2018-04-17T05:26:26.409Z,8.13
2018-04-17T05:28:52.280Z,8.27
2018-04-17T05:31:18.187Z,8.38
2018-04-17T05:33:44.065Z,8.18
2018-04-17T05:36:09.945Z,8.27
2018-04-17T05:38:35.864Z,8.46
2018-04-17T05:41:01.725Z,8.40
2018-04-17T05:43:27.634Z,8.30
2018-04-17T05:45:53.561Z,8.48
2018-04-17T05:48:19.452Z,8.61
2018-04-17T05:50:45.357Z,8.71
2018-04-17T05:53:11.230Z,8.64
2018-04-17T05:55:37.141Z,8.50
2018-04-17T05:58:02.991Z,8.64
2018-04-17T06:00:28.893Z,8.78
2018-04-17T06:02:54.745Z,8.92
2018-04-17T06:05:20.633Z,8.80
2018-04-17T06:07:46.500Z,8.79
2018-04-17T06:10:12.370Z,8.70
2018-04-17T06:12:38.240Z,8.58
2018-04-17T06:15:04.178Z,8.39
2018-04-17T06:17:30.068Z,8.64
2018-04-17T06:19:55.942Z,8.67
2018-04-17T06:22:21.818Z,8.75
2018-04-17T06:24:47.714Z,8.56
2018-04-17T06:27:13.601Z,8.70
2018-04-17T06:29:39.498Z,8.97
2018-04-17T06:32:05.356Z,8.81
2018-04-17T06:34:31.243Z,8.94
2018-04-17T06:36:57.090Z,9.00
2018-04-17T06:39:22.951Z,8.96
2018-04-17T06:41:48.937Z,8.98
2018-04-17T06:44:14.759Z,8.74
2018-04-17T06:46:40.614Z,9.07
2018-04-17T06:49:06.470Z,9.13
2018-04-17T06:51:32.338Z,9.09
2018-04-17T06:53:58.214Z,9.11
2018-04-17T06:56:24.092Z,9.03
2018-04-17T06:58:49.959Z,9.03
2018-04-17T07:01:15.790Z,9.13
2018-04-17T07:03:41.681Z,9.34
2018-04-17T07:06:07.545Z,9.58
2018-04-17T07:08:33.429Z,9.80
2018-04-17T07:10:59.308Z,9.83
2018-04-17T07:13:25.181Z,9.65
2018-04-17T07:15:51.040Z,9.77
2018-04-17T07:18:16.990Z,9.76
2018-04-17T07:20:42.833Z,9.76
2018-04-17T07:23:08.712Z,9.65
2018-04-17T07:25:34.573Z,9.92
2018-04-17T07:28:00.406Z,10.20
2018-04-17T07:30:26.294Z,10.58
2018-04-17T07:32:52.181Z,10.44
2018-04-17T07:35:18.073Z,10.39
2018-04-17T07:37:43.962Z,10.26
2018-04-17T07:40:09.825Z,10.38
2018-04-17T07:42:35.695Z,10.33
2018-04-17T07:45:01.591Z,10.53
2018-04-17T07:47:27.489Z,10.32
2018-04-17T07:49:53.378Z,10.37
2018-04-17T07:52:19.242Z,10.61
2018-04-17T07:54:45.089Z,10.80
2018-04-17T07:57:10.954Z,11.21
2018-04-17T07:59:36.790Z,11.40
2018-04-17T08:02:02.653Z,11.65
2018-04-17T08:04:28.509Z,11.84
2018-04-17T08:06:54.390Z,12.19
2018-04-17T08:09:20.261Z,12.36
2018-04-17T08:11:46.121Z,12.23
2018-04-17T08:14:11.995Z,12.13
2018-04-17T08:16:37.886Z,12.59
2018-04-17T08:19:03.785Z,13.00
2018-04-17T08:21:29.671Z,13.01
2018-04-17T08:23:55.545Z,13.69
2018-04-17T08:26:21.420Z,13.66
2018-04-17T08:28:47.266Z,13.88
2018-04-17T08:31:13.137Z,14.22
2018-04-17T08:33:39.042Z,14.46
2018-04-17T08:36:04.939Z,14.57
2018-04-17T08:38:30.782Z,14.33
2018-04-17T08:40:56.653Z,14.59
2018-04-17T08:43:22.517Z,14.66
2018-04-17T08:45:48.415Z,15.07
2018-04-17T08:48:14.280Z,15.31
2018-04-17T08:50:40.138Z,15.31
2018-04-17T08:53:06.016Z,15.38
2018-04-17T08:55:31.918Z,15.50
2018-04-17T08:57:57.804Z,15.20
2018-04-17T09:00:23.633Z,15.18
2018-04-17T09:02:49.524Z,15.56
2018-04-17T09:05:15.446Z,15.96
2018-04-17T09:07:48.302Z,15.96
2018-04-17T09:10:14.173Z,15.95
2018-04-17T09:12:40.096Z,16.28
2018-04-17T09:15:05.962Z,16.41
2018-04-17T09:17:31.853Z,16.33
2018-04-17T09:19:57.753Z,16.43
2018-04-17T09:22:23.617Z,16.77
2018-04-17T09:24:49.476Z,16.80
2018-04-17T09:27:15.360Z,16.98
2018-04-17T09:29:41.253Z,16.95
2018-04-17T09:32:07.125Z,16.86
2018-04-17T09:34:33.018Z,16.76
2018-04-17T09:36:58.898Z,16.68
2018-04-17T09:39:24.764Z,16.69
2018-04-17T09:41:50.664Z,16.67
2018-04-17T09:44:16.526Z,16.82
2018-04-17T09:46:42.461Z,17.21
2018-04-17T09:49:08.381Z,17.34
2018-04-17T09:51:34.210Z,17.37
2018-04-17T09:54:00.080Z,17.61
2018-04-17T09:56:25.964Z,17.46
2018-04-17T09:58:51.813Z,17.29
2018-04-17T10:01:17.698Z,17.43
2018-04-17T10:03:43.557Z,17.17
2018-04-17T10:06:09.425Z,17.57
2018-04-17T10:08:35.289Z,17.80
2018-04-17T10:11:01.143Z,17.96
2018-04-17T10:13:27.026Z,17.92
2018-04-17T10:15:52.861Z,18.00
2018-04-17T10:18:18.740Z,17.96
2018-04-17T10:20:44.734Z,18.32
2018-04-17T10:23:10.578Z,18.46
2018-04-17T10:25:36.453Z,18.44
2018-04-17T10:28:02.317Z,18.34
2018-04-17T10:30:28.166Z,18.69
2018-04-17T10:32:53.994Z,18.70
2018-04-17T10:35:19.834Z,18.45
2018-04-17T10:37:45.834Z,18.69
2018-04-17T10:40:11.722Z,19.00
2018-04-17T10:42:37.760Z,19.00
2018-04-17T10:45:04.600Z,19.21
2018-04-17T10:47:30.503Z,19.10
2018-04-17T10:49:56.377Z,19.61
2018-04-17T10:52:22.273Z,19.64
2018-04-17T10:54:48.118Z,20.06
2018-04-17T10:57:14.033Z,20.01
2018-04-17T10:59:39.878Z,20.04
2018-04-17T11:02:05.748Z,19.95
2018-04-17T11:04:31.612Z,19.81
2018-04-17T11:06:57.495Z,20.01
2018-04-17T11:09:23.386Z,20.54
2018-04-17T11:11:49.284Z,20.92
2018-04-17T11:14:15.142Z,21.21
2018-04-17T11:16:40.968Z,21.15
2018-04-17T11:19:06.834Z,21.01
2018-04-17T11:21:32.682Z,20.72
2018-04-17T11:23:58.550Z,20.59
2018-04-17T11:26:24.424Z,20.68
2018-04-17T11:28:50.292Z,20.36
2018-04-17T11:31:16.141Z,19.74
2018-04-17T11:33:42.037Z,19.55
2018-04-17T11:36:07.940Z,19.16
2018-04-17T11:38:33.806Z,19.02
2018-04-17T11:40:59.682Z,19.03
2018-04-17T11:43:25.533Z,19.89
2018-04-17T11:45:51.436Z,20.83
2018-04-17T11:48:17.293Z,21.00
2018-04-17T11:50:43.162Z,21.13
2018-04-17T11:53:09.036Z,21.63
2018-04-17T11:55:34.901Z,21.82
2018-04-17T11:58:00.757Z,22.01
2018-04-17T12:00:26.816Z,21.74
2018-04-17T12:02:52.738Z,20.79
2018-04-17T12:05:18.603Z,20.00
2018-04-17T12:07:44.508Z,19.66
2018-04-17T12:10:10.406Z,19.38
2018-04-17T12:12:36.281Z,19.90
2018-04-17T12:15:02.161Z,19.60
2018-04-17T12:17:28.002Z,20.37
2018-04-17T12:19:53.877Z,20.44
2018-04-17T12:22:19.713Z,20.71
2018-04-17T12:24:45.679Z,20.27
2018-04-17T12:27:11.538Z,20.17
2018-04-17T12:29:37.392Z,20.42
2018-04-17T12:32:03.301Z,20.16
2018-04-17T12:34:29.201Z,19.83
2018-04-17T12:39:27.562Z,19.66
2018-04-17T12:41:53.447Z,20.02
2018-04-17T12:44:19.306Z,20.32
2018-04-17T12:46:45.175Z,20.29
2018-04-17T12:49:11.025Z,20.30
2018-04-17T12:51:36.873Z,20.07
2018-04-17T12:54:02.751Z,20.41
2018-04-17T12:56:29.645Z,20.53
2018-04-17T12:58:55.545Z,20.32
2018-04-17T13:01:21.409Z,20.19
2018-04-17T13:03:47.233Z,20.46
2018-04-17T13:06:13.144Z,19.85
2018-04-17T13:08:39.028Z,20.28
2018-04-17T13:11:04.919Z,20.84
2018-04-17T13:13:30.784Z,20.44
2018-04-17T13:15:56.674Z,19.96
2018-04-17T13:18:22.564Z,20.35
2018-04-17T13:20:48.456Z,20.80
2018-04-17T13:23:14.344Z,20.26
2018-04-17T13:25:40.232Z,20.38
2018-04-17T13:28:06.117Z,21.24
2018-04-17T13:30:31.964Z,21.94
2018-04-17T13:32:57.817Z,22.64
2018-04-17T13:35:23.698Z,23.27
2018-04-17T13:37:49.562Z,23.38
2018-04-17T13:40:15.460Z,23.25
2018-04-17T13:42:41.328Z,23.05
2018-04-17T13:45:07.185Z,23.68
2018-04-17T13:47:33.041Z,22.91
2018-04-17T13:49:58.889Z,23.80
2018-04-17T13:52:24.745Z,24.78
2018-04-17T13:54:50.610Z,24.29
2018-04-17T13:57:16.450Z,23.59
2018-04-17T13:59:42.336Z,23.06
2018-04-17T14:02:08.204Z,23.47
2018-04-17T14:04:34.081Z,23.64
2018-04-17T14:06:59.966Z,24.29
2018-04-17T14:09:25.865Z,24.85
2018-04-17T14:11:51.716Z,25.43
2018-04-17T14:14:17.561Z,25.40
2018-04-17T14:16:43.436Z,25.45
2018-04-17T14:19:09.329Z,25.46
2018-04-17T14:21:35.216Z,24.99
2018-04-17T14:24:01.062Z,24.73
2018-04-17T14:26:26.932Z,24.67
2018-04-17T14:28:52.809Z,25.22
2018-04-17T14:31:18.687Z,24.79
2018-04-17T14:33:44.577Z,24.43
2018-04-17T14:36:10.430Z,24.16
2018-04-17T14:38:36.352Z,23.96
2018-04-17T14:41:02.223Z,24.25
2018-04-17T14:43:28.237Z,22.60
2018-04-17T14:45:54.030Z,21.57
2018-04-17T14:48:19.919Z,21.29
2018-04-17T14:50:45.794Z,20.81
2018-04-17T14:53:11.901Z,20.71
2018-04-17T14:55:37.789Z,20.62
2018-04-17T14:58:03.674Z,21.40
2018-04-17T15:00:29.517Z,20.78
2018-04-17T15:02:56.172Z,20.78
2018-04-17T15:05:22.012Z,22.05
2018-04-17T15:07:48.107Z,22.67
2018-04-17T15:10:13.958Z,22.13
2018-04-17T15:12:39.815Z,22.16
2018-04-17T15:15:05.704Z,21.75
2018-04-17T15:17:31.613Z,21.70
2018-04-17T15:19:57.457Z,21.24
2018-04-17T15:22:23.440Z,20.86
2018-04-17T15:24:49.302Z,20.96
2018-04-17T15:27:15.160Z,20.84
2018-04-17T15:29:41.069Z,21.31
2018-04-17T15:32:06.982Z,21.04
2018-04-17T15:34:32.877Z,21.61
2018-04-17T15:36:58.759Z,22.40
2018-04-17T15:39:24.672Z,23.42
2018-04-17T15:41:50.569Z,23.52
2018-04-17T15:44:16.434Z,22.85
2018-04-17T15:46:42.313Z,22.85
2018-04-17T15:49:08.267Z,22.32
2018-04-17T15:51:34.198Z,21.97
2018-04-17T15:54:00.046Z,22.60
2018-04-17T15:56:25.931Z,22.77
2018-04-17T15:58:51.836Z,23.33
2018-04-17T16:01:17.692Z,22.77
2018-04-17T16:03:43.629Z,22.50
2018-04-17T16:06:09.466Z,22.19
2018-04-17T16:08:35.356Z,22.60
2018-04-17T16:11:01.200Z,22.68
2018-04-17T16:13:27.131Z,22.53
2018-04-17T16:15:52.993Z,22.04
2018-04-17T16:18:18.894Z,22.06
2018-04-17T16:20:44.753Z,21.63
2018-04-17T16:23:10.605Z,21.45
2018-04-17T16:25:36.498Z,21.24
2018-04-17T16:28:02.398Z,20.93
2018-04-17T16:30:28.335Z,20.67
2018-04-17T16:32:54.186Z,20.66
2018-04-17T16:35:20.069Z,20.62
2018-04-17T16:37:45.965Z,20.59
2018-04-17T16:40:11.864Z,20.36
2018-04-17T16:42:38.081Z,20.28
2018-04-17T16:45:03.990Z,20.22
2018-04-17T16:47:29.863Z,20.29
2018-04-17T16:49:55.732Z,20.19
2018-04-17T16:52:21.633Z,20.08
2018-04-17T16:54:47.546Z,19.99
2018-04-17T16:57:13.390Z,19.98
2018-04-17T16:59:39.253Z,19.99
2018-04-17T17:02:05.115Z,20.05
2018-04-17T17:04:31.035Z,19.93
2018-04-17T17:06:56.924Z,20.01
2018-04-17T17:09:22.810Z,19.73
2018-04-17T17:11:48.680Z,19.67
2018-04-17T17:14:14.527Z,19.66
2018-04-17T17:16:40.402Z,19.60
2018-04-17T17:19:06.286Z,19.52
2018-04-17T17:21:32.192Z,19.47
2018-04-17T17:23:58.024Z,19.41
2018-04-17T17:26:24.075Z,19.34
2018-04-17T17:28:49.908Z,19.35
2018-04-17T17:31:15.785Z,19.33
2018-04-17T17:33:41.677Z,19.25
2018-04-17T17:36:07.556Z,19.18
2018-04-17T17:38:33.461Z,19.06
2018-04-17T17:40:59.337Z,18.86
2018-04-17T17:43:25.214Z,18.89
2018-04-17T17:45:51.094Z,18.75
2018-04-17T17:48:16.959Z,18.66
2018-04-17T17:50:42.865Z,18.47
2018-04-17T17:53:08.802Z,18.32
2018-04-17T17:55:34.695Z,18.22
2018-04-17T17:58:00.580Z,18.21
2018-04-17T18:00:26.465Z,18.12
2018-04-17T18:02:52.365Z,17.94
2018-04-17T18:05:18.286Z,17.91
2018-04-17T18:07:44.171Z,17.79
2018-04-17T18:10:10.017Z,17.54
2018-04-17T18:12:35.908Z,17.44
2018-04-17T18:15:01.799Z,17.41
2018-04-17T18:17:27.680Z,17.32
2018-04-17T18:19:53.557Z,17.23
2018-04-17T18:22:19.425Z,17.16
2018-04-17T18:24:45.304Z,17.22
2018-04-17T18:27:11.173Z,17.07
2018-04-17T18:29:37.073Z,17.11
2018-04-17T18:32:03.001Z,17.00
2018-04-17T18:34:28.849Z,16.98
2018-04-17T18:36:54.752Z,16.91
2018-04-17T18:39:20.641Z,16.81
2018-04-17T18:41:46.546Z,16.62
2018-04-17T18:44:12.429Z,16.59
2018-04-17T18:46:38.280Z,16.47
2018-04-17T18:49:04.133Z,16.48
2018-04-17T18:51:30.005Z,16.45
2018-04-17T18:53:55.877Z,16.39
2018-04-17T18:56:21.746Z,16.24
2018-04-17T18:58:47.694Z,16.09
2018-04-17T19:01:13.558Z,15.99
2018-04-17T19:03:39.425Z,15.94
2018-04-17T19:06:05.334Z,15.93
2018-04-17T19:08:31.216Z,15.65
2018-04-17T19:10:57.098Z,15.47
2018-04-17T19:13:22.953Z,15.29
2018-04-17T19:15:48.840Z,15.28
2018-04-17T19:18:14.718Z,15.27
2018-04-17T19:20:40.598Z,15.17
2018-04-17T19:23:06.458Z,14.93
2018-04-17T19:25:32.360Z,14.89
2018-04-17T19:27:58.225Z,14.86
2018-04-17T19:30:24.089Z,14.67
2018-04-17T19:32:50.093Z,14.83
2018-04-17T19:35:16.033Z,14.57
2018-04-17T19:37:41.893Z,14.52
2018-04-17T19:40:07.786Z,14.42
2018-04-17T19:42:33.685Z,14.28
2018-04-17T19:44:59.686Z,14.36
2018-04-17T19:47:25.565Z,14.49
2018-04-17T19:49:51.452Z,14.31
2018-04-17T19:52:17.341Z,14.15
2018-04-17T19:54:43.243Z,14.07
2018-04-17T19:57:09.194Z,13.96
2018-04-17T19:59:35.005Z,13.80
2018-04-17T20:02:00.849Z,13.88
2018-04-17T20:04:26.708Z,13.66
2018-04-17T20:06:52.574Z,13.68
2018-04-17T20:09:18.514Z,13.70
2018-04-17T20:11:44.355Z,13.69
2018-04-17T20:14:10.323Z,13.44
2018-04-17T20:16:36.222Z,13.57
2018-04-17T20:19:02.077Z,13.58
2018-04-17T20:21:27.939Z,13.52
2018-04-17T20:23:53.802Z,13.45
2018-04-17T20:26:19.666Z,13.31
2018-04-17T20:28:45.552Z,13.26
2018-04-17T20:31:11.377Z,13.15
2018-04-17T20:33:37.250Z,12.96
2018-04-17T20:36:03.151Z,12.84
2018-04-17T20:38:29.067Z,12.47
2018-04-17T20:40:54.930Z,12.53
2018-04-17T20:43:20.844Z,12.21
2018-04-17T20:45:46.786Z,12.44
2018-04-17T20:48:12.717Z,12.43
2018-04-17T20:50:38.676Z,12.52
2018-04-17T20:53:04.615Z,12.65
2018-04-17T20:55:30.555Z,12.54
2018-04-17T20:57:56.458Z,12.55
2018-04-17T21:00:22.430Z,12.64
2018-04-17T21:02:48.335Z,12.51
2018-04-17T21:05:14.196Z,12.32
2018-04-17T21:07:40.056Z,12.25
2018-04-17T21:10:05.995Z,12.01
2018-04-17T21:12:31.893Z,11.71
2018-04-17T21:14:57.761Z,11.55
2018-04-17T21:17:23.672Z,11.58
2018-04-17T21:19:49.568Z,11.75
2018-04-17T21:22:15.480Z,11.87
2018-04-17T21:24:41.377Z,11.84
2018-04-17T21:27:07.281Z,11.76
2018-04-17T21:29:33.153Z,11.81
2018-04-17T21:31:59.003Z,11.74
2018-04-17T21:34:24.889Z,11.57
2018-04-17T21:36:50.749Z,11.43
2018-04-17T21:39:16.711Z,11.18
2018-04-17T21:41:42.588Z,11.16
2018-04-17T21:44:08.461Z,11.30
2018-04-17T21:46:34.389Z,11.30
2018-04-17T21:49:00.269Z,11.34
2018-04-17T21:51:26.172Z,11.55
2018-04-17T21:53:52.034Z,11.60
2018-04-17T21:56:17.921Z,11.51
2018-04-17T21:58:43.833Z,11.49
2018-04-17T22:01:09.674Z,11.27
2018-04-17T22:06:01.280Z,11.03
2018-04-17T22:08:27.125Z,11.10
2018-04-17T22:10:53.000Z,11.28
2018-04-17T22:13:18.874Z,11.31
2018-04-17T22:15:44.781Z,11.37
2018-04-17T22:18:10.681Z,11.15
2018-04-17T22:20:36.626Z,11.00
2018-04-17T22:23:02.535Z,10.69
2018-04-17T22:25:28.460Z,10.80
2018-04-17T22:27:54.320Z,10.81
2018-04-17T22:30:20.170Z,10.77
2018-04-17T22:32:46.077Z,10.78
2018-04-17T22:35:11.955Z,10.81
2018-04-17T22:37:37.861Z,10.64
2018-04-17T22:40:03.785Z,10.72
2018-04-17T22:42:29.728Z,10.64
2018-04-17T22:44:55.617Z,10.68
2018-04-17T22:47:21.518Z,10.72
2018-04-17T22:49:47.445Z,10.62
2018-04-17T22:52:13.321Z,10.46
2018-04-17T22:54:39.242Z,10.41
2018-04-17T22:57:05.140Z,10.52
2018-04-17T22:59:31.017Z,10.42
2018-04-17T23:01:56.900Z,10.42
2018-04-17T23:04:22.778Z,10.51
2018-04-17T23:06:48.681Z,10.48
2018-04-17T23:09:14.545Z,10.26
2018-04-17T23:11:40.483Z,9.92
2018-04-17T23:14:06.357Z,9.77
2018-04-17T23:16:32.228Z,9.74
2018-04-17T23:18:58.102Z,9.64
2018-04-17T23:21:23.952Z,9.47
2018-04-17T23:23:49.842Z,9.77
2018-04-17T23:26:15.702Z,9.92
2018-04-17T23:28:41.592Z,9.93
2018-04-17T23:31:07.472Z,10.00
2018-04-17T23:33:33.313Z,9.91
2018-04-17T23:35:59.197Z,9.89
2018-04-17T23:38:25.049Z,9.95
2018-04-17T23:40:50.957Z,9.91
2018-04-17T23:43:16.844Z,9.83
2018-04-17T23:45:42.724Z,9.60
2018-04-17T23:48:08.609Z,9.82
2018-04-17T23:50:34.468Z,9.85
2018-04-17T23:53:00.361Z,9.78
2018-04-17T23:55:26.205Z,9.70
2018-04-17T23:57:52.082Z,9.85
